Floresta Azul, Brazil
Current Conditions -  °F | °C
As of 11:00 AM on Friday 24 Oct 2014 (Local Time) from SBIL Reporting Station
Light Rain Light Rain  
Wind Chill: 73°   Ceiling: 2000
Heat Index: 73°   Visibility: 1.8mi
Dew Point: 70°   Wind: 6mph
Humidity: 88%   Direction: 270°W
Pressure: NA   Gusts: NA
Location:  14.86°S, 39.66°W
Report Text: SBIL 241400Z 27005KT 3000 -RA BR SCT006 BKN020 OVC100 23/21 Q1018
Loading
Personal Weather Stations






























Interactive Weather Map
Tropical Storm Tracking
New forecast layout! Learn more

10-Day Weather Forecast

Advertisements
Track Severe Weather on mobile